createdAt,value
2018-08-11T00:00:05.453Z,20.14
2018-08-11T00:01:05.452Z,20.02
2018-08-11T00:02:05.432Z,20.03
2018-08-11T00:03:05.412Z,20.03
2018-08-11T00:04:05.400Z,20.04
2018-08-11T00:05:05.393Z,20.07
2018-08-11T00:06:05.380Z,20.10
2018-08-11T00:07:05.354Z,20.00
2018-08-11T00:08:05.391Z,20.11
2018-08-11T00:09:05.326Z,20.04
2018-08-11T00:10:05.319Z,20.15
2018-08-11T00:11:05.303Z,20.08
2018-08-11T00:12:05.284Z,20.17
2018-08-11T00:13:05.271Z,20.07
2018-08-11T00:14:05.256Z,20.10
2018-08-11T00:15:05.244Z,20.11
2018-08-11T00:16:05.238Z,20.07
2018-08-11T00:17:05.215Z,20.12
2018-08-11T00:18:05.201Z,20.17
2018-08-11T00:19:05.191Z,20.11
2018-08-11T00:20:05.185Z,20.02
2018-08-11T00:21:05.171Z,20.08
2018-08-11T00:22:05.150Z,20.10
2018-08-11T00:23:05.134Z,20.08
2018-08-11T00:24:05.133Z,20.17
2018-08-11T00:25:05.103Z,20.18
2018-08-11T00:26:05.108Z,20.21
2018-08-11T00:27:05.127Z,20.17
2018-08-11T00:28:05.085Z,20.19
2018-08-11T00:29:05.049Z,20.10
2018-08-11T00:30:05.035Z,20.21
2018-08-11T00:31:05.033Z,20.17
2018-08-11T00:32:05.011Z,20.10
2018-08-11T00:33:04.993Z,20.18
2018-08-11T00:34:04.991Z,20.14
2018-08-11T00:35:05.018Z,20.18
2018-08-11T00:36:04.953Z,20.19
2018-08-11T00:37:04.944Z,20.22
2018-08-11T00:38:04.928Z,20.17
2018-08-11T00:39:04.911Z,20.19
2018-08-11T00:40:04.899Z,20.18
2018-08-11T00:41:04.884Z,20.19
2018-08-11T00:42:04.869Z,20.15
2018-08-11T00:43:04.856Z,20.21
2018-08-11T00:44:04.850Z,20.21
2018-08-11T00:45:04.835Z,20.21
2018-08-11T00:46:04.822Z,20.15
2018-08-11T00:47:04.801Z,20.19
2018-08-11T00:48:04.933Z,20.18
2018-08-11T00:49:04.773Z,20.17
2018-08-11T00:50:04.772Z,20.17
2018-08-11T00:51:04.794Z,20.15
2018-08-11T00:52:04.730Z,20.08
2018-08-11T00:53:04.723Z,20.04
2018-08-11T00:54:04.706Z,19.96
2018-08-11T00:55:04.691Z,19.84
2018-08-11T00:56:04.677Z,19.81
2018-08-11T00:57:04.660Z,19.72
2018-08-11T00:58:04.645Z,19.53
2018-08-11T00:59:04.633Z,19.42
2018-08-11T01:00:04.620Z,19.39
2018-08-11T01:01:04.613Z,19.41
2018-08-11T01:02:04.592Z,19.39
2018-08-11T01:03:04.578Z,19.39
2018-08-11T01:04:04.566Z,19.47
2018-08-11T01:05:04.560Z,19.30
2018-08-11T01:06:04.545Z,19.29
2018-08-11T01:07:04.671Z,19.19
2018-08-11T01:08:04.508Z,19.19
2018-08-11T01:09:04.492Z,19.29
2018-08-11T01:10:04.496Z,19.22
2018-08-11T01:11:04.467Z,19.20
2018-08-11T01:12:04.451Z,19.22
2018-08-11T01:13:04.440Z,19.17
2018-08-11T01:14:04.424Z,19.15
2018-08-11T01:15:04.412Z,19.08
2018-08-11T01:16:04.395Z,19.09
2018-08-11T01:17:04.389Z,18.94
2018-08-11T01:18:04.370Z,18.74
2018-08-11T01:19:04.353Z,18.78
2018-08-11T01:20:04.340Z,18.73
2018-08-11T01:21:04.326Z,18.55
2018-08-11T01:22:04.314Z,18.49
2018-08-11T01:23:04.304Z,18.39
2018-08-11T01:24:04.291Z,18.42
2018-08-11T01:25:04.278Z,18.42
2018-08-11T01:26:04.253Z,18.46
2018-08-11T01:27:04.241Z,18.55
2018-08-11T01:28:04.229Z,18.49
2018-08-11T01:29:04.213Z,18.57
2018-08-11T01:30:04.199Z,18.48
2018-08-11T01:31:04.182Z,18.39
2018-08-11T01:32:04.169Z,18.21
2018-08-11T01:33:04.155Z,18.19
2018-08-11T01:34:04.141Z,18.00
2018-08-11T01:35:04.128Z,17.65
2018-08-11T01:36:04.115Z,17.52
2018-08-11T01:37:04.098Z,17.22
2018-08-11T01:38:04.084Z,17.07
2018-08-11T01:39:04.069Z,17.07
2018-08-11T01:40:04.055Z,16.99
2018-08-11T01:41:04.042Z,16.98
2018-08-11T01:42:04.026Z,16.98
2018-08-11T01:43:04.012Z,16.95
2018-08-11T01:44:04.041Z,16.95
2018-08-11T01:45:03.984Z,16.95
2018-08-11T01:46:03.971Z,17.04
2018-08-11T01:47:03.955Z,17.04
2018-08-11T01:48:03.941Z,16.95
2018-08-11T01:49:03.927Z,16.92
2018-08-11T01:50:04.005Z,16.77
2018-08-11T01:51:03.895Z,16.49
2018-08-11T01:52:03.885Z,16.54
2018-08-11T01:53:03.925Z,16.34
2018-08-11T01:54:03.864Z,16.34
2018-08-11T01:55:03.840Z,16.36
2018-08-11T01:56:03.827Z,16.41
2018-08-11T01:57:03.810Z,16.40
2018-08-11T01:58:03.793Z,16.39
2018-08-11T01:59:03.780Z,16.29
2018-08-11T02:00:03.773Z,16.25
2018-08-11T02:01:03.752Z,16.17
2018-08-11T02:02:03.737Z,16.21
2018-08-11T02:03:03.721Z,16.24
2018-08-11T02:04:03.708Z,16.22
2018-08-11T02:05:03.704Z,16.31
2018-08-11T02:06:03.679Z,16.32
2018-08-11T02:07:03.662Z,16.32
2018-08-11T02:08:03.651Z,16.18
2018-08-11T02:09:03.633Z,16.09
2018-08-11T02:10:03.619Z,16.06
2018-08-11T02:11:03.605Z,16.00
2018-08-11T02:12:03.589Z,16.03
2018-08-11T02:13:03.574Z,16.05
2018-08-11T02:14:03.680Z,15.91
2018-08-11T02:15:03.551Z,15.92
2018-08-11T02:16:03.530Z,15.92
2018-08-11T02:17:03.537Z,15.84
2018-08-11T02:18:03.497Z,15.91
2018-08-11T02:19:03.491Z,15.81
2018-08-11T02:20:03.475Z,15.91
2018-08-11T02:21:03.457Z,15.87
2018-08-11T02:22:03.441Z,15.87
2018-08-11T02:23:03.425Z,15.78
2018-08-11T02:24:03.411Z,15.78
2018-08-11T02:25:03.397Z,15.80
2018-08-11T02:26:03.380Z,15.73
2018-08-11T02:27:03.367Z,15.62
2018-08-11T02:28:03.350Z,15.62
2018-08-11T02:29:03.337Z,15.66
2018-08-11T02:30:03.323Z,15.54
2018-08-11T02:31:03.308Z,15.59
2018-08-11T02:32:03.294Z,15.60
2018-08-11T02:33:03.275Z,15.66
2018-08-11T02:34:03.257Z,15.65
2018-08-11T02:35:03.245Z,15.69
2018-08-11T02:36:03.304Z,15.66
2018-08-11T02:37:03.216Z,15.69
2018-08-11T02:38:03.200Z,15.73
2018-08-11T02:39:03.185Z,15.63
2018-08-11T02:40:03.170Z,15.67
2018-08-11T02:41:03.155Z,15.60
2018-08-11T02:42:03.152Z,15.52
2018-08-11T02:43:03.125Z,15.62
2018-08-11T02:44:03.108Z,15.62
2018-08-11T02:45:03.103Z,15.59
2018-08-11T02:46:03.078Z,15.48
2018-08-11T02:47:03.065Z,15.44
2018-08-11T02:48:03.052Z,15.33
2018-08-11T02:49:03.035Z,15.22
2018-08-11T02:50:03.029Z,15.29
2018-08-11T02:51:03.005Z,15.25
2018-08-11T02:52:02.987Z,15.29
2018-08-11T02:53:02.973Z,15.15
2018-08-11T02:54:02.956Z,15.18
2018-08-11T02:55:02.986Z,15.12
2018-08-11T02:56:02.927Z,15.23
2018-08-11T02:57:02.909Z,15.26
2018-08-11T02:58:02.896Z,15.27
2018-08-11T02:59:02.882Z,15.23
2018-08-11T03:00:02.865Z,15.26
2018-08-11T03:01:02.853Z,15.27
2018-08-11T03:02:02.837Z,15.26
2018-08-11T03:03:02.944Z,15.30
2018-08-11T03:04:02.803Z,15.37
2018-08-11T03:05:02.794Z,15.36
2018-08-11T03:06:02.793Z,15.41
2018-08-11T03:07:02.774Z,15.25
2018-08-11T03:08:02.759Z,15.27
2018-08-11T03:09:02.744Z,15.39
2018-08-11T03:10:02.712Z,15.27
2018-08-11T03:11:02.696Z,15.27
2018-08-11T03:12:02.680Z,15.23
2018-08-11T03:13:02.667Z,15.23
2018-08-11T03:14:02.738Z,15.26
2018-08-11T03:15:02.634Z,15.30
2018-08-11T03:16:02.617Z,15.23
2018-08-11T03:17:02.606Z,15.18
2018-08-11T03:18:02.590Z,15.12
2018-08-11T03:19:02.712Z,15.15
2018-08-11T03:20:02.564Z,15.30
2018-08-11T03:21:02.546Z,15.26
2018-08-11T03:22:02.625Z,15.19
2018-08-11T03:23:02.509Z,15.22
2018-08-11T03:24:02.494Z,15.23
2018-08-11T03:25:02.491Z,15.26
2018-08-11T03:26:02.468Z,15.22
2018-08-11T03:27:02.449Z,15.25
2018-08-11T03:28:02.433Z,15.26
2018-08-11T03:29:02.414Z,15.18
2018-08-11T03:30:02.408Z,15.23
2018-08-11T03:31:02.395Z,15.29
2018-08-11T03:32:02.370Z,15.25
2018-08-11T03:33:02.353Z,15.25
2018-08-11T03:34:02.341Z,15.17
2018-08-11T03:35:02.322Z,15.14
2018-08-11T03:36:02.307Z,15.23
2018-08-11T03:37:02.291Z,15.14
2018-08-11T03:38:02.388Z,15.15
2018-08-11T03:39:02.258Z,15.18
2018-08-11T03:40:02.248Z,15.14
2018-08-11T03:41:02.229Z,15.05
2018-08-11T03:42:02.220Z,14.99
2018-08-11T03:43:02.198Z,14.99
2018-08-11T03:44:02.181Z,15.04
2018-08-11T03:45:02.165Z,15.00
2018-08-11T03:46:02.224Z,15.02
2018-08-11T03:47:02.137Z,15.05
2018-08-11T03:48:02.129Z,15.05
2018-08-11T03:49:02.266Z,15.02
2018-08-11T03:50:02.092Z,14.99
2018-08-11T03:51:02.072Z,14.99
2018-08-11T03:52:02.056Z,15.05
2018-08-11T03:53:02.043Z,15.04
2018-08-11T03:54:02.026Z,14.99
2018-08-11T03:55:02.007Z,15.10
2018-08-11T03:56:01.993Z,14.94
2018-08-11T03:57:01.975Z,15.05
2018-08-11T03:58:01.962Z,15.10
2018-08-11T03:59:01.945Z,15.00
2018-08-11T04:00:01.935Z,15.04
2018-08-11T04:01:01.914Z,14.99
2018-08-11T04:02:01.897Z,15.05
2018-08-11T04:03:01.886Z,15.02
2018-08-11T04:04:01.866Z,15.10
2018-08-11T04:05:01.848Z,14.96
2018-08-11T04:06:01.840Z,15.11
2018-08-11T04:07:01.827Z,15.17
2018-08-11T04:08:01.803Z,15.10
2018-08-11T04:09:01.787Z,15.07
2018-08-11T04:10:01.782Z,14.99
2018-08-11T04:11:01.753Z,14.97
2018-08-11T04:12:01.739Z,14.87
2018-08-11T04:13:01.724Z,14.90
2018-08-11T04:14:01.707Z,15.04
2018-08-11T04:15:01.693Z,14.97
2018-08-11T04:16:01.677Z,15.07
2018-08-11T04:17:01.659Z,15.00
2018-08-11T04:18:01.642Z,14.92
2018-08-11T04:19:01.627Z,14.96
2018-08-11T04:20:01.612Z,14.99
2018-08-11T04:21:01.596Z,15.07
2018-08-11T04:22:01.579Z,14.97
2018-08-11T04:23:01.562Z,15.02
2018-08-11T04:24:01.547Z,14.99
2018-08-11T04:25:01.537Z,15.05
2018-08-11T04:26:01.514Z,15.05
2018-08-11T04:27:01.654Z,15.05
2018-08-11T04:28:01.483Z,15.02
2018-08-11T04:29:01.468Z,15.15
2018-08-11T04:30:01.552Z,15.22
2018-08-11T04:31:01.436Z,15.12
2018-08-11T04:32:01.423Z,15.07
2018-08-11T04:33:01.409Z,14.96
2018-08-11T04:34:01.385Z,15.07
2018-08-11T04:35:01.519Z,15.04
2018-08-11T04:36:01.358Z,15.05
2018-08-11T04:37:01.341Z,15.11
2018-08-11T04:38:01.343Z,15.15
2018-08-11T04:39:01.305Z,15.15
2018-08-11T04:40:01.291Z,15.17
2018-08-11T04:41:01.277Z,15.22
2018-08-11T04:42:01.289Z,15.11
2018-08-11T04:43:01.245Z,15.17
2018-08-11T04:44:01.231Z,15.14
2018-08-11T04:45:01.210Z,15.11
2018-08-11T04:46:01.196Z,15.15
2018-08-11T04:47:01.181Z,15.15
2018-08-11T04:48:01.162Z,15.14
2018-08-11T04:49:01.146Z,14.99
2018-08-11T04:50:01.138Z,15.04
2018-08-11T04:51:01.114Z,14.96
2018-08-11T04:52:01.104Z,14.97
2018-08-11T04:53:01.085Z,14.99
2018-08-11T04:54:01.133Z,15.12
2018-08-11T04:55:01.053Z,15.14
2018-08-11T04:56:01.037Z,15.15
2018-08-11T04:57:01.023Z,15.14
2018-08-11T04:58:01.003Z,15.17
2018-08-11T04:59:00.987Z,15.11
2018-08-11T05:00:00.973Z,15.07
2018-08-11T05:01:00.959Z,15.02
2018-08-11T05:02:00.940Z,15.08
2018-08-11T05:03:00.925Z,15.10
2018-08-11T05:04:00.909Z,15.27
2018-08-11T05:05:00.895Z,15.19
2018-08-11T05:06:00.876Z,15.27
2018-08-11T05:07:00.874Z,15.39
2018-08-11T05:08:00.847Z,15.33
2018-08-11T05:09:00.841Z,15.39
2018-08-11T05:10:00.959Z,15.41
2018-08-11T05:11:00.801Z,15.51
2018-08-11T05:12:00.783Z,15.43
2018-08-11T05:13:00.772Z,15.39
2018-08-11T05:14:00.751Z,15.37
2018-08-11T05:15:00.734Z,15.39
2018-08-11T05:16:00.718Z,15.39
2018-08-11T05:17:00.704Z,15.18
2018-08-11T05:18:00.691Z,15.15
2018-08-11T05:19:00.671Z,15.15
2018-08-11T05:20:00.736Z,15.08
2018-08-11T05:21:00.641Z,15.07
2018-08-11T05:22:00.626Z,15.14
2018-08-11T05:23:00.611Z,15.15
2018-08-11T05:24:00.595Z,15.29
2018-08-11T05:25:00.579Z,15.26
2018-08-11T05:26:00.583Z,15.25
2018-08-11T05:27:00.546Z,15.25
2018-08-11T05:28:00.542Z,15.33
2018-08-11T05:29:00.515Z,15.33
2018-08-11T05:30:00.514Z,15.43
2018-08-11T05:31:00.485Z,15.43
2018-08-11T05:32:00.469Z,15.39
2018-08-11T05:33:00.455Z,15.43
2018-08-11T05:34:00.439Z,15.50
2018-08-11T05:35:00.425Z,15.55
2018-08-11T05:36:00.407Z,15.41
2018-08-11T05:37:00.494Z,15.36
2018-08-11T05:38:00.374Z,15.47
2018-08-11T05:39:00.358Z,15.47
2018-08-11T05:40:00.344Z,15.54
2018-08-11T05:41:00.328Z,15.43
2018-08-11T05:42:00.312Z,15.52
2018-08-11T05:43:00.304Z,15.52
2018-08-11T05:44:00.285Z,15.52
2018-08-11T05:45:00.274Z,15.67
2018-08-11T05:46:00.255Z,15.78
2018-08-11T05:47:00.237Z,15.81
2018-08-11T05:48:00.223Z,15.84
2018-08-11T05:49:00.206Z,15.66
2018-08-11T05:50:00.199Z,15.70
2018-08-11T05:51:00.171Z,15.59
2018-08-11T05:52:00.158Z,15.63
2018-08-11T05:53:00.298Z,15.65
2018-08-11T05:54:00.126Z,15.65
2018-08-11T05:55:00.111Z,15.62
2018-08-11T05:56:00.122Z,15.73
2018-08-11T05:57:00.094Z,15.70
2018-08-11T05:58:00.066Z,15.90
2018-08-11T05:59:00.053Z,16.86
2018-08-11T06:00:00.074Z,16.76
2018-08-11T06:01:00.025Z,16.61
2018-08-11T06:02:00.037Z,16.66
2018-08-11T06:02:59.995Z,16.32
2018-08-11T06:04:00.029Z,16.22
2018-08-11T06:04:59.958Z,16.03
2018-08-11T06:05:59.946Z,15.99
2018-08-11T06:06:59.931Z,16.21
2018-08-11T06:07:59.917Z,16.17
2018-08-11T06:08:59.901Z,16.22
2018-08-11T06:09:59.888Z,16.31
2018-08-11T06:10:59.867Z,16.36
2018-08-11T06:11:59.922Z,16.57
2018-08-11T06:12:59.841Z,16.51
2018-08-11T06:13:59.825Z,16.99
2018-08-11T06:14:59.817Z,17.20
2018-08-11T06:15:59.808Z,17.90
2018-08-11T06:16:59.784Z,17.98
2018-08-11T06:17:59.782Z,17.94
2018-08-11T06:18:59.752Z,17.60
2018-08-11T06:19:59.739Z,17.34
2018-08-11T06:20:59.780Z,16.89
2018-08-11T06:21:59.713Z,17.16
2018-08-11T06:22:59.754Z,17.19
2018-08-11T06:23:59.683Z,17.16
2018-08-11T06:24:59.669Z,17.56
2018-08-11T06:25:59.658Z,17.39
2018-08-11T06:26:59.643Z,17.75
2018-08-11T06:27:59.629Z,17.78
2018-08-11T06:28:59.613Z,17.80
2018-08-11T06:29:59.601Z,18.19
2018-08-11T06:30:59.593Z,18.13
2018-08-11T06:31:59.593Z,18.16
2018-08-11T06:32:59.560Z,17.98
2018-08-11T06:33:59.548Z,17.57
2018-08-11T06:34:59.536Z,17.34
2018-08-11T06:35:59.522Z,17.19
2018-08-11T06:36:59.514Z,17.09
2018-08-11T06:37:59.499Z,16.94
2018-08-11T06:38:59.618Z,16.80
2018-08-11T06:39:59.476Z,16.76
2018-08-11T06:40:59.594Z,16.86
2018-08-11T06:41:59.491Z,16.92
2018-08-11T06:42:59.433Z,16.92
2018-08-11T06:43:59.419Z,16.95
2018-08-11T06:44:59.409Z,16.72
2018-08-11T06:45:59.396Z,16.74
2018-08-11T06:46:59.430Z,16.50
2018-08-11T06:47:59.364Z,16.49
2018-08-11T06:48:59.349Z,16.59
2018-08-11T06:49:59.337Z,16.66
2018-08-11T06:50:59.322Z,16.84
2018-08-11T06:51:59.310Z,16.97
2018-08-11T06:52:59.296Z,17.01
2018-08-11T06:53:59.282Z,17.07
2018-08-11T06:54:59.349Z,16.97
2018-08-11T06:55:59.266Z,17.16
2018-08-11T06:56:59.241Z,17.07
2018-08-11T06:57:59.232Z,17.23
2018-08-11T06:58:59.216Z,17.35
2018-08-11T06:59:59.203Z,17.52
2018-08-11T07:00:59.192Z,17.50
2018-08-11T07:01:59.176Z,17.24
2018-08-11T07:02:59.165Z,17.31
2018-08-11T07:03:59.188Z,17.30
2018-08-11T07:04:59.138Z,17.27
2018-08-11T07:05:59.224Z,17.04
2018-08-11T07:06:59.152Z,17.19
2018-08-11T07:07:59.099Z,17.41
2018-08-11T07:08:59.084Z,17.56
2018-08-11T07:09:59.074Z,17.28
2018-08-11T07:10:59.058Z,17.27
2018-08-11T07:11:59.052Z,17.22
2018-08-11T07:12:59.031Z,17.09
2018-08-11T07:13:59.019Z,17.10
2018-08-11T07:14:59.010Z,17.31
2018-08-11T07:15:58.989Z,17.34
2018-08-11T07:16:58.976Z,17.52
2018-08-11T07:17:58.964Z,17.75
2018-08-11T07:18:58.950Z,17.90
2018-08-11T07:19:58.941Z,17.78
2018-08-11T07:20:58.924Z,17.87
2018-08-11T07:21:58.913Z,17.79
2018-08-11T07:22:58.900Z,17.53
2018-08-11T07:23:58.882Z,17.88
2018-08-11T07:24:58.872Z,17.90
2018-08-11T07:25:58.862Z,18.05
2018-08-11T07:26:58.851Z,18.19
2018-08-11T07:27:58.830Z,18.28
2018-08-11T07:28:58.817Z,18.21
2018-08-11T07:29:58.812Z,18.19
2018-08-11T07:30:58.792Z,18.24
2018-08-11T07:31:58.779Z,18.27
2018-08-11T07:32:58.768Z,18.16
2018-08-11T07:33:58.753Z,18.00
2018-08-11T07:34:58.752Z,17.97
2018-08-11T07:35:58.801Z,17.88
2018-08-11T07:36:58.719Z,18.09
2018-08-11T07:37:58.708Z,18.23
2018-08-11T07:38:58.692Z,18.39
2018-08-11T07:39:58.685Z,18.45
2018-08-11T07:40:58.678Z,18.81
2018-08-11T07:41:58.659Z,18.36
2018-08-11T07:42:58.652Z,18.34
2018-08-11T07:43:58.633Z,18.61
2018-08-11T07:44:58.629Z,18.85
2018-08-11T07:45:58.609Z,18.78
2018-08-11T07:46:58.604Z,18.91
2018-08-11T07:47:58.594Z,18.91
2018-08-11T07:48:58.572Z,19.29
2018-08-11T07:49:58.559Z,18.88
2018-08-11T07:50:58.554Z,18.68
2018-08-11T07:51:58.550Z,18.82
2018-08-11T07:52:58.524Z,18.66
2018-08-11T07:53:58.512Z,18.73
2018-08-11T07:54:58.511Z,18.67
2018-08-11T07:55:58.551Z,18.78
2018-08-11T07:56:58.477Z,18.79
2018-08-11T07:57:58.466Z,18.58
2018-08-11T07:58:58.457Z,18.55
2018-08-11T07:59:58.445Z,18.68
2018-08-11T08:00:58.437Z,18.83
2018-08-11T08:01:58.559Z,18.81
2018-08-11T08:02:58.412Z,19.11
2018-08-11T08:03:58.398Z,19.39
2018-08-11T08:04:58.395Z,19.19
2018-08-11T08:05:58.376Z,18.89
2018-08-11T08:06:58.367Z,19.34
2018-08-11T08:07:58.430Z,19.24
2018-08-11T08:08:58.345Z,19.48
2018-08-11T08:09:58.327Z,19.29
2018-08-11T08:10:58.320Z,19.22
2018-08-11T08:11:58.304Z,19.11
2018-08-11T08:12:58.291Z,19.26
2018-08-11T08:13:58.281Z,19.17
2018-08-11T08:14:58.270Z,18.94
2018-08-11T08:15:58.255Z,19.07
2018-08-11T08:16:58.244Z,19.04
2018-08-11T08:17:58.243Z,19.39
2018-08-11T08:18:58.220Z,19.49
2018-08-11T08:19:58.209Z,19.63
2018-08-11T08:20:58.196Z,19.49
2018-08-11T08:21:58.199Z,19.26
2018-08-11T08:22:58.181Z,19.24
2018-08-11T08:23:58.170Z,19.49
2018-08-11T08:24:58.150Z,19.57
2018-08-11T08:25:58.191Z,19.89
2018-08-11T08:26:58.250Z,19.92
2018-08-11T08:27:58.117Z,19.56
2018-08-11T08:28:58.103Z,19.48
2018-08-11T08:29:58.092Z,19.59
2018-08-11T08:30:58.088Z,19.67
2018-08-11T08:31:58.073Z,19.52
2018-08-11T08:32:58.056Z,19.63
2018-08-11T08:33:58.103Z,19.71
2018-08-11T08:34:58.031Z,19.60
2018-08-11T08:35:58.021Z,19.60
2018-08-11T08:36:58.015Z,19.59
2018-08-11T08:37:57.994Z,19.87
2018-08-11T08:38:57.984Z,19.96
2018-08-11T08:39:57.980Z,20.11
2018-08-11T08:40:57.968Z,20.14
2018-08-11T08:41:58.017Z,20.24
2018-08-11T08:42:57.938Z,20.15
2018-08-11T08:43:57.925Z,20.11
2018-08-11T08:44:57.920Z,20.11
2018-08-11T08:45:57.903Z,20.15
2018-08-11T08:46:57.888Z,20.36
2018-08-11T08:47:57.879Z,20.73
2018-08-11T08:48:57.866Z,20.88
2018-08-11T08:49:57.854Z,21.03
2018-08-11T08:50:57.844Z,20.48
2018-08-11T08:51:57.842Z,20.29
2018-08-11T08:52:57.820Z,20.18
2018-08-11T08:53:57.811Z,20.10
2018-08-11T08:54:57.801Z,19.89
2018-08-11T08:55:57.788Z,19.81
2018-08-11T08:56:57.776Z,19.75
2018-08-11T08:57:57.762Z,19.81
2018-08-11T08:58:57.804Z,19.81
2018-08-11T08:59:57.759Z,19.96
2018-08-11T09:00:57.728Z,19.81
2018-08-11T09:01:57.727Z,19.94
2018-08-11T09:02:57.703Z,20.22
2018-08-11T09:03:57.694Z,20.37
2018-08-11T09:04:57.777Z,20.44
2018-08-11T09:05:57.667Z,20.40
2018-08-11T09:06:57.658Z,20.30
2018-08-11T09:07:57.646Z,20.42
2018-08-11T09:08:57.638Z,20.46
2018-08-11T09:09:57.621Z,20.55
2018-08-11T09:10:57.613Z,20.68
2018-08-11T09:11:57.649Z,20.75
2018-08-11T09:12:57.588Z,20.95
2018-08-11T09:13:57.583Z,20.83
2018-08-11T09:14:57.565Z,20.96
2018-08-11T09:15:57.552Z,20.90
2018-08-11T09:16:57.551Z,21.29
2018-08-11T09:17:57.530Z,21.66
2018-08-11T09:18:57.522Z,21.60
2018-08-11T09:19:57.511Z,21.33
2018-08-11T09:20:57.498Z,21.20
2018-08-11T09:21:57.488Z,20.85
2018-08-11T09:22:57.485Z,20.86
2018-08-11T09:23:57.469Z,21.11
2018-08-11T09:24:57.455Z,21.26
2018-08-11T09:25:57.445Z,20.75
2018-08-11T09:26:57.436Z,20.21
2018-08-11T09:27:57.423Z,20.15
2018-08-11T09:28:57.414Z,20.02
2018-08-11T09:29:57.409Z,20.50
2018-08-11T09:30:57.391Z,20.64
2018-08-11T09:31:57.379Z,20.75
2018-08-11T09:32:57.370Z,20.96
2018-08-11T09:33:57.376Z,21.26
2018-08-11T09:34:57.354Z,21.63
2018-08-11T09:35:57.339Z,22.37
2018-08-11T09:36:57.327Z,22.71
2018-08-11T09:37:57.315Z,22.88
2018-08-11T09:38:57.306Z,22.33
2018-08-11T09:39:57.307Z,21.80
2018-08-11T09:40:57.447Z,21.84
2018-08-11T09:41:57.276Z,22.76
2018-08-11T09:42:57.263Z,23.40
2018-08-11T09:43:57.262Z,23.62
2018-08-11T09:44:57.246Z,23.62
2018-08-11T09:45:57.261Z,23.52
2018-08-11T09:46:57.223Z,23.10
2018-08-11T09:47:57.216Z,22.61
2018-08-11T09:48:57.205Z,22.15
2018-08-11T09:49:57.201Z,21.91
2018-08-11T09:50:57.192Z,21.72
2018-08-11T09:51:57.177Z,22.95
2018-08-11T09:52:57.169Z,23.20
2018-08-11T09:53:57.162Z,23.64
2018-08-11T09:54:57.156Z,23.21
2018-08-11T09:55:57.150Z,22.84
2018-08-11T09:56:57.149Z,23.34
2018-08-11T09:57:57.126Z,22.46
2018-08-11T09:58:57.119Z,22.04
2018-08-11T09:59:57.110Z,21.72
2018-08-11T10:00:57.101Z,22.55
2018-08-11T10:01:57.093Z,23.36
2018-08-11T10:02:57.086Z,23.74
2018-08-11T10:03:57.078Z,23.99
2018-08-11T10:04:57.080Z,23.76
2018-08-11T10:05:57.071Z,23.20
2018-08-11T10:06:57.057Z,22.62
2018-08-11T10:07:57.060Z,23.47
2018-08-11T10:08:57.061Z,23.94
2018-08-11T10:09:57.061Z,24.36
2018-08-11T10:10:57.042Z,24.79
2018-08-11T10:11:57.032Z,24.96
2018-08-11T10:12:57.025Z,26.13
2018-08-11T10:13:57.016Z,26.96
2018-08-11T10:14:57.015Z,27.05
2018-08-11T10:15:57.008Z,26.97
2018-08-11T10:16:57.013Z,25.89
2018-08-11T10:17:57.004Z,25.24
2018-08-11T10:18:57.007Z,25.24
2018-08-11T10:19:56.996Z,24.77
2018-08-11T10:20:56.995Z,24.44
2018-08-11T10:21:56.991Z,23.81
2018-08-11T10:22:56.995Z,23.14
2018-08-11T10:23:56.992Z,22.81
2018-08-11T10:24:56.981Z,22.70
2018-08-11T10:25:56.977Z,22.59
2018-08-11T10:26:56.973Z,22.43
2018-08-11T10:27:56.974Z,22.40
2018-08-11T10:28:56.969Z,23.63
2018-08-11T10:29:56.960Z,24.58
2018-08-11T10:30:56.962Z,25.41
2018-08-11T10:31:56.951Z,25.83
2018-08-11T10:32:56.955Z,26.34
2018-08-11T10:33:56.949Z,26.76
2018-08-11T10:34:56.940Z,26.91
2018-08-11T10:35:56.942Z,26.36
2018-08-11T10:36:56.948Z,27.34
2018-08-11T10:37:56.965Z,26.85
2018-08-11T10:38:56.927Z,26.49
2018-08-11T10:39:56.945Z,26.42
2018-08-11T10:40:56.921Z,26.26
2018-08-11T10:41:56.922Z,26.30
2018-08-11T10:42:56.927Z,25.39
2018-08-11T10:43:56.924Z,24.59
2018-08-11T10:44:56.913Z,24.14
2018-08-11T10:45:56.914Z,23.76
2018-08-11T10:46:56.938Z,23.62
2018-08-11T10:47:56.908Z,23.21
2018-08-11T10:48:56.903Z,23.04
2018-08-11T10:49:56.908Z,22.80
2018-08-11T10:50:56.897Z,22.59
2018-08-11T10:51:56.900Z,22.58
2018-08-11T10:52:56.894Z,22.70
2018-08-11T10:53:56.884Z,22.78
2018-08-11T10:54:56.889Z,22.40
2018-08-11T10:55:56.897Z,22.44
2018-08-11T10:56:56.875Z,22.46
2018-08-11T10:57:56.869Z,22.55
2018-08-11T10:58:56.854Z,22.49
2018-08-11T10:59:56.864Z,22.59
2018-08-11T11:00:56.845Z,22.56
2018-08-11T11:01:56.834Z,22.61
2018-08-11T11:02:56.832Z,22.63
2018-08-11T11:03:56.830Z,22.34
2018-08-11T11:04:56.814Z,22.12
2018-08-11T11:06:40.785Z,21.85
2018-08-11T11:07:40.775Z,21.84
2018-08-11T11:08:40.769Z,21.92
2018-08-11T11:09:40.775Z,22.19
2018-08-11T11:10:40.768Z,22.14
2018-08-11T11:11:40.746Z,21.94
2018-08-11T11:12:40.736Z,22.01
2018-08-11T11:13:40.748Z,22.19
2018-08-11T11:14:40.723Z,22.14
2018-08-11T11:15:40.708Z,22.51
2018-08-11T11:16:40.705Z,22.68
2018-08-11T11:17:40.703Z,23.02
2018-08-11T11:18:40.679Z,23.01
2018-08-11T11:19:40.679Z,23.54
2018-08-11T11:20:40.665Z,23.36
2018-08-11T11:21:40.652Z,23.10
2018-08-11T11:22:40.644Z,22.96
2018-08-11T11:23:40.637Z,22.80
2018-08-11T11:24:40.648Z,22.49
2018-08-11T11:25:40.620Z,22.30
2018-08-11T11:26:40.621Z,22.01
2018-08-11T11:27:40.603Z,21.77
2018-08-11T11:28:40.594Z,21.80
2018-08-11T11:29:40.581Z,21.72
2018-08-11T11:30:40.573Z,21.80
2018-08-11T11:31:40.565Z,21.75
2018-08-11T11:32:40.568Z,21.77
2018-08-11T11:33:40.545Z,21.81
2018-08-11T11:34:40.547Z,21.63
2018-08-11T11:35:40.531Z,21.62
2018-08-11T11:36:40.518Z,21.66
2018-08-11T11:37:40.511Z,21.85
2018-08-11T11:38:40.508Z,22.33
2018-08-11T11:39:40.500Z,22.81
2018-08-11T11:40:40.500Z,23.07
2018-08-11T11:41:40.482Z,23.96
2018-08-11T11:42:40.499Z,24.21
2018-08-11T11:43:40.453Z,24.77
2018-08-11T11:44:40.445Z,25.26
2018-08-11T11:45:40.434Z,25.67
2018-08-11T11:46:40.427Z,25.49
2018-08-11T11:47:40.428Z,26.11
2018-08-11T11:48:40.419Z,26.61
2018-08-11T11:49:40.410Z,26.26
2018-08-11T11:50:40.402Z,26.19
2018-08-11T11:51:40.394Z,25.63
2018-08-11T11:52:40.384Z,24.84
2018-08-11T11:53:40.373Z,24.89
2018-08-11T11:54:40.367Z,25.04
2018-08-11T11:55:40.365Z,25.36
2018-08-11T11:56:40.354Z,25.81
2018-08-11T11:57:40.356Z,25.91
2018-08-11T11:58:40.345Z,25.74
2018-08-11T11:59:40.335Z,25.58
2018-08-11T12:00:40.327Z,25.62
2018-08-11T12:01:40.321Z,25.21
2018-08-11T12:02:40.315Z,24.62
2018-08-11T12:03:40.309Z,23.96
2018-08-11T12:04:40.312Z,23.86
2018-08-11T12:05:40.308Z,23.79
2018-08-11T12:06:40.300Z,23.62
2018-08-11T12:07:40.290Z,23.77
2018-08-11T12:08:40.279Z,23.52
2018-08-11T12:09:40.268Z,23.39
2018-08-11T12:10:40.277Z,23.37
2018-08-11T12:11:40.255Z,23.36
2018-08-11T12:12:40.254Z,23.23
2018-08-11T12:13:40.240Z,23.32
2018-08-11T12:14:40.231Z,23.48
2018-08-11T12:15:40.230Z,23.51
2018-08-11T12:16:40.227Z,23.33
2018-08-11T12:17:40.308Z,23.52
2018-08-11T12:18:40.202Z,23.45
2018-08-11T12:19:40.203Z,23.92
2018-08-11T12:20:40.189Z,24.01
2018-08-11T12:21:40.186Z,23.85
2018-08-11T12:22:40.171Z,23.62
2018-08-11T12:23:40.160Z,23.29
2018-08-11T12:24:40.155Z,23.37
2018-08-11T12:25:40.145Z,23.48
2018-08-11T12:26:40.137Z,23.40
2018-08-11T12:27:40.144Z,23.26
2018-08-11T12:28:40.127Z,23.26
2018-08-11T12:29:40.112Z,23.26
2018-08-11T12:30:40.102Z,23.63
2018-08-11T12:31:40.094Z,23.73
2018-08-11T12:32:40.085Z,23.64
2018-08-11T12:33:40.087Z,23.64
2018-08-11T12:34:40.075Z,23.69
2018-08-11T12:35:40.061Z,23.67
2018-08-11T12:36:40.058Z,23.69
2018-08-11T12:37:40.041Z,23.52
2018-08-11T12:38:40.036Z,23.40
2018-08-11T12:39:40.025Z,23.42
2018-08-11T12:40:40.018Z,23.21
2018-08-11T12:41:40.006Z,23.40
2018-08-11T12:42:40.013Z,23.33
2018-08-11T12:43:39.996Z,23.62
2018-08-11T12:44:39.984Z,23.64
2018-08-11T12:45:39.972Z,23.81
2018-08-11T12:46:40.073Z,23.86
2018-08-11T12:47:39.952Z,23.51
2018-08-11T12:48:39.942Z,23.33
2018-08-11T12:49:39.936Z,23.17
2018-08-11T12:50:39.927Z,23.40
2018-08-11T12:51:39.916Z,23.66
2018-08-11T12:52:39.906Z,23.79